Time;durP1;ratioP1;P1;durP2;ratioP2;P2;SDS_P1;SDS_P2;PMS_P1;PMS_P2;Temp;Humidity;BMP_temperature;BMP_pressure;BME280_temperature;BME280_humidity;BME280_pressure;Samples;Min_cycle;Max_cycle;Signal;HPM_P1;HPM_P2
2023/06/05 00:01:07;;;;;;;;;;;;;;;30.34;32.67;94184.91;4959563;28;7260;-56
2023/06/05 00:03:53;;;;;;;;;;;;;;;30.36;31.62;94193.41;5051635;28;9063;-56
2023/06/05 00:06:30;;;;;;;;;;;;;;;30.34;32.08;94184.91;5044075;28;9082;-56
2023/06/05 00:09:13;;;;;;;;;;;;;;;30.32;31.54;94186.75;5059649;28;8339;-56
2023/06/05 00:11:44;;;;;;;;;;;;;;;30.32;32.07;94192.31;5025830;28;7183;-56
2023/06/05 00:14:42;;;;;;;;;;;;;;;30.33;31.40;94188.22;5044043;28;9038;-56
2023/06/05 00:17:21;;;;;;;;;;;;;;;30.32;31.49;94181.94;5003619;28;7337;-56
2023/06/05 00:20:32;;;;;;;;;;;;;;;30.32;31.78;94181.94;5005147;28;7338;-56
2023/06/05 00:22:59;;;;;;;;;;;;;;;30.31;31.48;94177.69;5008768;28;9017;-56
2023/06/05 00:25:41;;;;;;;;;;;;;;;30.29;31.50;94174.69;5004449;28;9745;-56
2023/06/05 00:28:29;;;;;;;;;;;;;;;30.31;32.25;94179.72;4992215;28;7643;-56
2023/06/05 00:30:55;;;;;;;;;;;;;;;30.28;31.92;94178.75;4983893;28;7209;-56
2023/06/05 00:33:32;;;;;;;;;;;;;;;30.26;32.14;94170.22;4992161;28;8970;-56
2023/06/05 00:35:58;;;;;;;;;;;;;;;30.27;32.53;94174.50;5003593;28;9111;-56
2023/06/05 00:38:40;;;;;;;;;;;;;;;30.26;32.63;94178.56;4987854;28;7247;-56
2023/06/05 00:41:45;;;;;;;;;;;;;;;30.26;31.42;94175.78;4992376;28;7009;-56
2023/06/05 00:44:20;;;;;;;;;;;;;;;30.24;31.49;94174.84;4993996;28;7267;-56
2023/06/05 00:47:00;;;;;;;;;;;;;;;30.24;31.73;94172.81;4985501;28;7216;-56
2023/06/05 00:49:36;;;;;;;;;;;;;;;30.24;31.74;94170.03;4990642;28;7070;-56
2023/06/05 00:52:28;;;;;;;;;;;;;;;30.24;32.47;94174.84;4988180;28;7196;-56
2023/06/05 00:55:21;;;;;;;;;;;;;;;30.23;32.09;94176.13;5043145;28;7121;-56
2023/06/05 00:57:49;;;;;;;;;;;;;;;30.22;31.60;94175.38;5033554;28;9205;-56
2023/06/05 01:00:45;;;;;;;;;;;;;;;30.21;31.64;94175.94;5040056;28;7029;-56
2023/06/05 01:03:50;;;;;;;;;;;;;;;30.21;31.41;94187.03;5057842;28;7157;-56
2023/06/05 01:06:38;;;;;;;;;;;;;;;30.20;32.20;94186.28;4991455;28;8946;-56
2023/06/05 01:09:08;;;;;;;;;;;;;;;30.18;32.34;94179.81;5011057;28;9000;-56
2023/06/05 01:11:47;;;;;;;;;;;;;;;30.18;31.29;94188.88;5009997;28;9182;-56
2023/06/05 01:14:27;;;;;;;;;;;;;;;30.18;31.79;94182.56;4993846;28;7280;-56
2023/06/05 01:17:08;;;;;;;;;;;;;;;30.17;32.49;94181.06;5010706;28;9140;-56
2023/06/05 01:19:36;;;;;;;;;;;;;;;30.16;32.47;94185.91;4994307;28;9515;-56
2023/06/05 01:22:05;;;;;;;;;;;;;;;30.15;31.97;94181.63;5009768;28;7274;-56
2023/06/05 01:25:01;;;;;;;;;;;;;;;30.15;32.38;94184.41;5009496;28;7203;-56
2023/06/05 01:27:55;;;;;;;;;;;;;;;30.14;31.08;94185.72;5010483;28;7273;-56
2023/06/05 01:31:01;;;;;;;;;;;;;;;30.13;31.43;94184.22;5007953;28;7870;-56
2023/06/05 01:33:30;;;;;;;;;;;;;;;30.12;31.92;94182.00;4969849;28;9133;-56
2023/06/05 01:36:04;;;;;;;;;;;;;;;30.13;31.19;94181.44;4970052;28;7117;-56
2023/06/05 01:38:41;;;;;;;;;;;;;;;30.12;32.09;94185.50;4992311;28;7747;-56
2023/06/05 01:41:10;;;;;;;;;;;;;;;30.09;31.42;94178.28;5001016;28;9080;-56
2023/06/05 01:43:50;;;;;;;;;;;;;;;30.10;31.35;94176.97;5007750;28;9015;-56
2023/06/05 01:46:25;;;;;;;;;;;;;;;30.09;31.59;94178.28;4986019;28;9037;-56
2023/06/05 01:49:02;;;;;;;;;;;;;;;30.08;32.17;94185.09;5002806;28;7907;-56
2023/06/05 01:51:38;;;;;;;;;;;;;;;30.06;31.12;94176.59;4991952;28;9057;-56
2023/06/05 01:54:23;;;;;;;;;;;;;;;30.04;31.96;94172.88;5002774;28;8971;-56
2023/06/05 01:56:50;;;;;;;;;;;;;;;30.06;32.44;94170.31;4993023;28;9106;-56
2023/06/05 01:59:36;;;;;;;;;;;;;;;30.05;32.33;94175.09;4991583;28;9127;-56
2023/06/05 02:02:03;;;;;;;;;;;;;;;30.03;31.47;94174.91;5003055;28;7310;-56
2023/06/05 02:04:30;;;;;;;;;;;;;;;30.06;31.24;94175.84;4979980;28;9142;-56
2023/06/05 02:07:03;;;;;;;;;;;;;;;30.01;31.97;94166.41;4980574;28;8244;-56
2023/06/05 02:10:02;;;;;;;;;;;;;;;30.02;31.15;94169.88;5019833;28;8636;-56
2023/06/05 02:12:29;;;;;;;;;;;;;;;29.99;31.23;94168.97;5004337;28;9037;-57
2023/06/05 02:14:58;;;;;;;;;;;;;;;29.99;32.24;94166.19;5004550;28;6982;-56
2023/06/05 02:17:36;;;;;;;;;;;;;;;29.97;32.03;94165.97;5003850;28;7038;-56
2023/06/05 02:20:32;;;;;;;;;;;;;;;29.99;31.42;94171.00;5008146;28;9313;-56
2023/06/05 02:23:33;;;;;;;;;;;;;;;29.98;31.74;94167.47;4970554;28;9742;-56
2023/06/05 02:26:08;;;;;;;;;;;;;;;29.96;31.23;94170.06;4952223;28;7225;-56
2023/06/05 02:28:47;;;;;;;;;;;;;;;29.95;32.23;94160.25;4952517;28;9109;-56
2023/06/05 02:31:15;;;;;;;;;;;;;;;29.96;32.29;94161.75;4967614;28;7105;-56
2023/06/05 02:33:44;;;;;;;;;;;;;;;29.94;31.14;94158.78;4966545;28;8619;-56
2023/06/05 02:36:25;;;;;;;;;;;;;;;29.96;31.27;94161.75;4968733;28;7044;-56
2023/06/05 02:39:04;;;;;;;;;;;;;;;29.95;32.35;94160.25;4969313;28;7696;-56
2023/06/05 02:42:08;;;;;;;;;;;;;;;29.95;32.30;94163.00;4952635;28;8212;-56
2023/06/05 02:44:48;;;;;;;;;;;;;;;29.93;31.90;94171.13;4877374;29;9281;-56
2023/06/05 02:47:15;;;;;;;;;;;;;;;29.92;31.54;94160.59;4890492;29;7036;-56
2023/06/05 02:49:41;;;;;;;;;;;;;;;29.92;31.65;94158.56;4895232;29;7054;-57
2023/06/05 02:52:10;;;;;;;;;;;;;;;29.91;31.93;94153.56;4900439;29;9423;-56
2023/06/05 02:54:44;;;;;;;;;;;;;;;29.91;32.24;94165.41;4911321;29;7047;-56
2023/06/05 02:57:10;;;;;;;;;;;;;;;29.89;31.88;94162.44;4914015;29;7316;-56
2023/06/05 02:59:39;;;;;;;;;;;;;;;29.91;31.95;94164.66;4934136;28;9042;-56
2023/06/05 03:02:10;;;;;;;;;;;;;;;29.87;31.95;94164.25;4946598;28;9042;-56
2023/06/05 03:04:53;;;;;;;;;;;;;;;29.89;31.92;94170.75;4980871;28;7311;-56
2023/06/05 03:07:40;;;;;;;;;;;;;;;29.89;31.48;94167.22;4982944;28;8990;-56
2023/06/05 03:10:07;;;;;;;;;;;;;;;29.88;31.74;94174.06;4949454;28;9089;-56
2023/06/05 03:12:42;;;;;;;;;;;;;;;29.89;31.66;94164.44;4979554;28;7060;-56
2023/06/05 03:15:17;;;;;;;;;;;;;;;29.88;31.81;94176.84;4967968;28;9117;-57
2023/06/05 03:17:44;;;;;;;;;;;;;;;29.86;31.80;94173.88;4948130;28;9055;-56
2023/06/05 03:20:12;;;;;;;;;;;;;;;29.85;31.45;94173.13;5000607;28;8049;-56
2023/06/05 03:22:39;;;;;;;;;;;;;;;29.85;30.83;94175.91;5039152;28;9085;-56
2023/06/05 03:25:08;;;;;;;;;;;;;;;29.84;31.50;94177.16;5023103;28;9039;-56
2023/06/05 03:27:42;;;;;;;;;;;;;;;29.84;31.38;94174.41;5024476;28;7267;-56
2023/06/05 03:30:34;;;;;;;;;;;;;;;29.85;31.10;94183.47;5061984;28;9108;-56
2023/06/05 03:33:01;;;;;;;;;;;;;;;29.83;31.97;94175.69;5039483;28;7446;-56
2023/06/05 03:35:29;;;;;;;;;;;;;;;29.83;31.95;94180.50;5046523;28;7286;-56
2023/06/05 03:37:55;;;;;;;;;;;;;;;29.83;30.96;94186.03;5030604;28;7078;-56
2023/06/05 03:40:26;;;;;;;;;;;;;;;29.82;31.46;94179.03;5026712;28;7205;-56
2023/06/05 03:42:53;;;;;;;;;;;;;;;29.81;31.99;94181.06;5021884;28;7280;-56
2023/06/05 03:45:22;;;;;;;;;;;;;;;29.77;32.20;94180.66;5023282;28;7249;-56
2023/06/05 03:47:48;;;;;;;;;;;;;;;29.78;31.33;94184.91;5024959;28;7063;-56
2023/06/05 03:50:16;;;;;;;;;;;;;;;29.77;30.91;94192.50;5041575;28;9036;-56
2023/06/05 03:52:44;;;;;;;;;;;;;;;29.76;30.85;94187.47;5056766;28;8935;-56
2023/06/05 03:55:12;;;;;;;;;;;;;;;29.73;31.30;94185.78;5058794;28;8236;-56
2023/06/05 03:57:41;;;;;;;;;;;;;;;29.73;31.73;94189.28;5042980;28;9309;-56
2023/06/05 04:00:11;;;;;;;;;;;;;;;29.74;30.99;94181.72;5053444;28;7037;-56
2023/06/05 04:02:37;;;;;;;;;;;;;;;29.73;31.50;94177.47;5030265;28;7282;-56
2023/06/05 04:05:11;;;;;;;;;;;;;;;29.74;31.72;94190.78;5023058;28;7036;-56
2023/06/05 04:07:39;;;;;;;;;;;;;;;29.74;31.36;94184.50;5054881;28;8989;-56
2023/06/05 04:10:30;;;;;;;;;;;;;;;29.71;31.90;94189.06;5033645;28;8934;-56
2023/06/05 04:12:59;;;;;;;;;;;;;;;29.72;31.20;94185.03;5033377;28;7241;-56
2023/06/05 04:15:53;;;;;;;;;;;;;;;29.72;30.91;94204.44;5048202;28;8807;-56
2023/06/05 04:18:32;;;;;;;;;;;;;;;29.71;31.48;94197.38;5028109;28;7230;-56
2023/06/05 04:21:26;;;;;;;;;;;;;;;29.74;31.14;94201.13;5030548;28;7069;-56
2023/06/05 04:24:06;;;;;;;;;;;;;;;29.68;31.31;94195.72;5026670;28;7022;-56
2023/06/05 04:26:51;;;;;;;;;;;;;;;29.69;31.08;94197.19;5050177;28;7193;-56
2023/06/05 04:29:26;;;;;;;;;;;;;;;29.70;32.11;94198.69;5058888;28;8740;-56
2023/06/05 04:32:00;;;;;;;;;;;;;;;29.71;32.03;94193.91;5057618;28;9041;-56
2023/06/05 04:34:47;;;;;;;;;;;;;;;29.72;31.64;94200.91;5045856;28;7028;-56
2023/06/05 04:37:17;;;;;;;;;;;;;;;29.72;33.74;94198.13;5044085;28;8771;-56
2023/06/05 04:39:54;;;;;;;;;;;;;;;29.76;33.65;94195.78;5026121;28;9020;-56
2023/06/05 04:42:32;;;;;;;;;;;;;;;29.78;34.30;94193.22;5029203;28;9386;-56
2023/06/05 04:45:02;;;;;;;;;;;;;;;29.75;34.87;94197.09;5029094;28;7266;-56
2023/06/05 04:47:29;;;;;;;;;;;;;;;29.74;34.46;94198.38;5056458;28;8147;-56
2023/06/05 04:50:05;;;;;;;;;;;;;;;29.75;34.06;94200.59;5043845;28;9094;-56
2023/06/05 04:52:41;;;;;;;;;;;;;;;29.73;33.30;94199.63;5042228;28;8122;-56
2023/06/05 04:55:09;;;;;;;;;;;;;;;29.73;33.74;94196.88;5040714;28;7209;-56
2023/06/05 04:57:42;;;;;;;;;;;;;;;29.74;33.52;94201.88;5026380;28;9134;-56
2023/06/05 05:00:24;;;;;;;;;;;;;;;29.75;33.02;94202.63;5055460;28;7033;-56
2023/06/05 05:02:53;;;;;;;;;;;;;;;29.74;33.58;94201.13;5024123;28;7495;-56
2023/06/05 05:05:27;;;;;;;;;;;;;;;29.69;32.67;94202.72;5027543;28;7272;-56
2023/06/05 05:07:55;;;;;;;;;;;;;;;29.67;33.90;94201.78;5029832;28;7056;-56
2023/06/05 05:10:25;;;;;;;;;;;;;;;29.65;33.36;94198.81;5041933;28;7295;-56
2023/06/05 05:13:02;;;;;;;;;;;;;;;29.68;33.26;94204.03;5027551;28;6963;-56
2023/06/05 05:16:03;;;;;;;;;;;;;;;29.66;33.65;94203.84;5020521;28;8871;-56
2023/06/05 05:18:30;;;;;;;;;;;;;;;29.64;34.19;94205.66;5021566;28;7047;-56
2023/06/05 05:20:56;;;;;;;;;;;;;;;29.65;33.29;94204.34;5028920;28;7089;-55
2023/06/05 05:23:31;;;;;;;;;;;;;;;29.67;33.52;94196.25;5026395;28;9151;-56
2023/06/05 05:26:00;;;;;;;;;;;;;;;29.62;33.23;94197.88;5054696;28;8004;-56
2023/06/05 05:28:32;;;;;;;;;;;;;;;29.66;33.29;94205.84;5030333;28;9323;-56
2023/06/05 05:31:00;;;;;;;;;;;;;;;29.63;33.75;94198.63;5024286;28;7417;-56
2023/06/05 05:33:26;;;;;;;;;;;;;;;29.65;33.02;94198.81;5045954;28;7717;-56
2023/06/05 05:36:02;;;;;;;;;;;;;;;29.65;33.14;94193.28;5043145;28;7002;-56
2023/06/05 05:38:31;;;;;;;;;;;;;;;29.68;33.39;94206.81;5040007;28;9368;-56
2023/06/05 05:41:04;;;;;;;;;;;;;;;29.67;33.81;94207.34;5025386;28;7306;-56
2023/06/05 05:43:30;;;;;;;;;;;;;;;29.67;34.57;94202.53;5022229;28;7263;-56
2023/06/05 05:45:56;;;;;;;;;;;;;;;29.67;34.35;94210.09;5021597;28;7480;-56
2023/06/05 05:48:22;;;;;;;;;;;;;;;29.69;34.61;94202.72;5048018;28;7283;-56
2023/06/05 05:50:51;;;;;;;;;;;;;;;29.71;34.80;94211.25;5038947;28;9528;-56
2023/06/05 05:53:57;;;;;;;;;;;;;;;29.70;34.72;94206.25;5042690;28;9862;-56
2023/06/05 05:56:35;;;;;;;;;;;;;;;29.70;34.16;94207.00;4985670;28;9178;-56
2023/06/05 05:59:03;;;;;;;;;;;;;;;29.70;34.43;94200.72;4986916;28;7755;-56
2023/06/05 06:01:58;;;;;;;;;;;;;;;29.69;35.35;94208.28;4990295;28;9013;-56
2023/06/05 06:04:38;;;;;;;;;;;;;;;29.69;34.56;94207.53;4987356;28;9172;-56
2023/06/05 06:07:05;;;;;;;;;;;;;;;29.69;35.50;94202.72;4995884;28;9432;-56
2023/06/05 06:09:32;;;;;;;;;;;;;;;29.70;34.92;94207.00;4999291;28;9429;-56
2023/06/05 06:12:17;;;;;;;;;;;;;;;29.69;34.34;94201.97;4999439;28;7242;-56
2023/06/05 06:14:45;;;;;;;;;;;;;;;29.72;34.16;94204.44;4988918;28;8994;-56
2023/06/05 06:17:12;;;;;;;;;;;;;;;29.72;34.48;94203.69;4984381;28;9309;-56
2023/06/05 06:19:40;;;;;;;;;;;;;;;29.71;35.19;94202.22;5001102;28;8674;-56
2023/06/05 06:22:11;;;;;;;;;;;;;;;29.74;34.69;94198.38;5003231;28;9055;-57
2023/06/05 06:25:12;;;;;;;;;;;;;;;29.73;34.54;94208.69;4991975;28;8725;-56
2023/06/05 06:27:53;;;;;;;;;;;;;;;29.71;34.69;94214.03;4923395;28;7271;-56
2023/06/05 06:30:30;;;;;;;;;;;;;;;29.73;34.84;94205.19;4968358;28;8706;-56
2023/06/05 06:33:03;;;;;;;;;;;;;;;29.71;34.91;94211.25;4950132;28;7298;-56
2023/06/05 06:36:08;;;;;;;;;;;;;;;29.75;34.77;94213.72;4953594;28;6929;-56
2023/06/05 06:38:47;;;;;;;;;;;;;;;29.71;35.07;94207.75;4939026;28;7266;-56
2023/06/05 06:41:27;;;;;;;;;;;;;;;29.68;34.43;94204.03;4924371;28;7286;-57
2023/06/05 06:43:53;;;;;;;;;;;;;;;29.71;34.90;94202.22;4938931;28;7279;-57
2023/06/05 06:46:30;;;;;;;;;;;;;;;29.69;33.73;94211.06;4930175;28;7547;-56
2023/06/05 06:49:15;;;;;;;;;;;;;;;29.69;33.65;94205.50;4933495;28;9399;-56
2023/06/05 06:51:41;;;;;;;;;;;;;;;29.70;34.20;94211.81;4933986;28;9559;-56
2023/06/05 06:54:11;;;;;;;;;;;;;;;29.67;34.74;94202.53;4931035;28;7141;-56
2023/06/05 06:56:42;;;;;;;;;;;;;;;29.68;34.79;94212.34;4918695;28;8329;-56
2023/06/05 06:59:27;;;;;;;;;;;;;;;29.65;34.13;94213.44;4918038;28;7253;-56
2023/06/05 07:02:17;;;;;;;;;;;;;;;29.64;34.78;94211.22;4935492;28;7283;-56
2023/06/05 07:04:45;;;;;;;;;;;;;;;29.64;34.04;94214.72;4973222;28;7045;-55
2023/06/05 07:07:21;;;;;;;;;;;;;;;29.64;34.53;94217.50;4972551;28;7278;-55
2023/06/05 07:10:21;;;;;;;;;;;;;;;29.64;34.29;94214.72;4982839;28;7207;-55
2023/06/05 07:12:52;;;;;;;;;;;;;;;29.65;33.91;94218.22;5005837;28;9740;-55
2023/06/05 07:15:34;;;;;;;;;;;;;;;29.67;33.59;94215.66;5047145;28;9221;-55
2023/06/05 07:18:07;;;;;;;;;;;;;;;29.65;34.43;94216.19;5034019;28;8728;-55
2023/06/05 07:20:52;;;;;;;;;;;;;;;29.68;34.25;94217.16;5044124;28;9140;-55
2023/06/05 07:23:20;;;;;;;;;;;;;;;29.66;33.93;94211.41;5035698;28;7156;-55
2023/06/05 07:25:48;;;;;;;;;;;;;;;29.68;33.85;94217.16;5039946;28;7415;-55
2023/06/05 07:28:16;;;;;;;;;;;;;;;29.67;34.20;94218.41;5047110;28;7213;-55
2023/06/05 07:30:48;;;;;;;;;;;;;;;29.67;33.98;94215.66;5026505;28;7742;-55
2023/06/05 07:33:14;;;;;;;;;;;;;;;29.63;33.12;94213.22;5041349;28;7018;-55
2023/06/05 07:35:40;;;;;;;;;;;;;;;29.64;33.35;94209.19;5019708;28;7075;-55
2023/06/05 07:38:08;;;;;;;;;;;;;;;29.64;33.58;94213.97;5040450;28;9025;-55
2023/06/05 07:40:34;;;;;;;;;;;;;;;29.63;33.79;94215.25;5041388;28;9021;-55
2023/06/05 07:43:00;;;;;;;;;;;;;;;29.65;33.41;94218.97;5049640;28;9056;-55
2023/06/05 07:45:29;;;;;;;;;;;;;;;29.67;33.66;94219.16;5041747;28;7012;-55
2023/06/05 07:47:57;;;;;;;;;;;;;;;29.67;34.04;94215.66;5052268;28;7070;-55
2023/06/05 07:50:26;;;;;;;;;;;;;;;29.65;33.96;94216.19;5036946;28;9142;-55
2023/06/05 07:52:53;;;;;;;;;;;;;;;29.64;34.02;94213.97;5019995;28;9095;-55
2023/06/05 07:55:20;;;;;;;;;;;;;;;29.64;33.82;94214.72;5049798;28;7003;-55
2023/06/05 07:57:52;;;;;;;;;;;;;;;29.64;33.90;94216.75;5020194;28;7152;-55
2023/06/05 08:00:21;;;;;;;;;;;;;;;29.64;33.35;94205.66;5028030;28;9032;-55
2023/06/05 08:02:48;;;;;;;;;;;;;;;29.61;34.03;94207.47;5036267;28;9133;-55
2023/06/05 08:05:19;;;;;;;;;;;;;;;29.65;32.79;94209.91;5054030;28;7070;-55
2023/06/05 08:07:46;;;;;;;;;;;;;;;29.64;33.00;94211.97;5045801;28;7038;-55
2023/06/05 08:10:15;;;;;;;;;;;;;;;29.65;32.67;94207.13;5035174;28;9048;-55
2023/06/05 08:12:42;;;;;;;;;;;;;;;29.65;33.77;94207.13;5024990;28;9065;-55
2023/06/05 08:15:08;;;;;;;;;;;;;;;29.63;33.19;94204.91;5040092;28;9077;-55
2023/06/05 08:17:34;;;;;;;;;;;;;;;29.64;33.02;94206.41;5024075;28;7875;-55
2023/06/05 08:20:11;;;;;;;;;;;;;;;29.64;32.83;94200.13;5039746;28;7315;-55
2023/06/05 08:22:44;;;;;;;;;;;;;;;29.65;32.94;94207.13;5031733;28;9143;-55
2023/06/05 08:25:21;;;;;;;;;;;;;;;29.66;32.66;94201.06;5009849;28;7031;-55
2023/06/05 08:27:47;;;;;;;;;;;;;;;29.66;32.95;94192.00;5023569;28;7349;-55
2023/06/05 08:30:13;;;;;;;;;;;;;;;29.62;33.15;94203.41;5035193;28;9306;-55
2023/06/05 08:32:41;;;;;;;;;;;;;;;29.64;33.19;94194.56;5042328;28;9076;-55
2023/06/05 08:35:12;;;;;;;;;;;;;;;29.67;33.61;94199.00;5050330;28;7051;-55
2023/06/05 08:37:41;;;;;;;;;;;;;;;29.67;33.88;94193.47;5036483;28;9327;-55
2023/06/05 08:40:10;;;;;;;;;;;;;;;29.64;32.58;94186.25;5019145;28;7768;-55
2023/06/05 08:42:39;;;;;;;;;;;;;;;29.65;33.12;94194.03;5029036;28;7242;-55
2023/06/05 08:45:08;;;;;;;;;;;;;;;29.62;33.02;94189.56;5057782;28;8839;-55
2023/06/05 08:47:46;;;;;;;;;;;;;;;29.65;33.25;94188.47;5027612;28;9103;-55
2023/06/05 08:50:23;;;;;;;;;;;;;;;29.65;32.43;94187.72;5029372;28;9445;-55
2023/06/05 08:52:59;;;;;;;;;;;;;;;29.65;32.57;94187.72;5040479;28;8744;-55
2023/06/05 08:55:55;;;;;;;;;;;;;;;29.66;32.93;94189.97;5046319;28;8998;-55
2023/06/05 08:58:30;;;;;;;;;;;;;;;29.68;32.38;94186.66;4971736;28;9628;-55
2023/06/05 09:01:01;;;;;;;;;;;;;;;29.69;31.71;94185.34;4972410;28;9030;-55
2023/06/05 09:03:38;;;;;;;;;;;;;;;29.68;31.98;94187.41;4972460;28;7146;-55
2023/06/05 09:06:18;;;;;;;;;;;;;;;29.66;32.56;94178.88;4973190;28;8765;-55
2023/06/05 09:09:17;;;;;;;;;;;;;;;29.66;32.36;94184.44;4967794;28;8040;-55
2023/06/05 09:12:08;;;;;;;;;;;;;;;29.66;32.06;94181.66;4915021;29;8156;-55
2023/06/05 09:14:41;;;;;;;;;;;;;;;29.68;31.79;94175.56;4914751;29;9362;-55
2023/06/05 09:17:13;;;;;;;;;;;;;;;29.67;32.29;94182.38;4915456;29;7196;-55
2023/06/05 09:19:48;;;;;;;;;;;;;;;29.69;31.73;94182.59;4933081;28;8751;-55
2023/06/05 09:22:35;;;;;;;;;;;;;;;29.69;31.60;94182.59;4916862;28;8987;-55
2023/06/05 09:25:11;;;;;;;;;;;;;;;29.67;31.56;94174.06;4915604;29;9652;-55
2023/06/05 09:28:10;;;;;;;;;;;;;;;29.69;32.38;94172.25;4930821;29;7055;-55
2023/06/05 09:31:08;;;;;;;;;;;;;;;29.70;32.61;94182.06;4855849;29;9054;-55
2023/06/05 09:34:06;;;;;;;;;;;;;;;29.72;31.78;94187.06;4855417;29;8559;-55
2023/06/05 09:36:51;;;;;;;;;;;;;;;29.66;32.18;94180.91;4875639;29;7245;-55
2023/06/05 09:39:30;;;;;;;;;;;;;;;29.70;31.43;94178.53;4873042;29;9237;-55
2023/06/05 09:42:44;;;;;;;;;;;;;;;29.70;32.10;94173.00;4858318;29;7307;-55
2023/06/05 09:45:47;;;;;;;;;;;;;;;29.69;32.51;94175.00;4874102;29;9755;-55
2023/06/05 09:48:58;;;;;;;;;;;;;;;29.68;32.17;94170.78;4937447;28;9067;-55
2023/06/05 09:51:27;;;;;;;;;;;;;;;29.67;31.45;94169.28;4931847;28;9080;-55
2023/06/05 09:54:05;;;;;;;;;;;;;;;29.70;31.60;94170.97;4947004;28;7377;-55
2023/06/05 09:56:48;;;;;;;;;;;;;;;29.70;32.61;94167.44;4964208;28;9750;-55
2023/06/05 09:59:21;;;;;;;;;;;;;;;29.73;32.30;94169.88;4937281;28;9206;-55
2023/06/05 10:01:50;;;;;;;;;;;;;;;29.72;31.61;94170.41;4967942;28;7292;-55
2023/06/05 10:04:22;;;;;;;;;;;;;;;29.75;31.62;94172.13;4967783;28;7077;-55
2023/06/05 10:07:03;;;;;;;;;;;;;;;29.76;32.25;94173.63;4974974;28;7983;-55
2023/06/05 10:09:33;;;;;;;;;;;;;;;29.74;32.07;94163.06;5024229;28;8721;-55
2023/06/05 10:12:04;;;;;;;;;;;;;;;29.78;32.69;94160.69;5031689;28;6988;-55
2023/06/05 10:14:43;;;;;;;;;;;;;;;29.78;32.13;94151.63;5029443;28;9568;-55
2023/06/05 10:17:20;;;;;;;;;;;;;;;29.79;31.47;94161.44;5056007;28;9138;-55
2023/06/05 10:20:06;;;;;;;;;;;;;;;29.81;31.93;94161.66;5043257;28;7521;-55
2023/06/05 10:22:40;;;;;;;;;;;;;;;29.82;32.54;94165.88;5023157;28;7320;-55
2023/06/05 10:25:12;;;;;;;;;;;;;;;29.83;32.27;94161.84;5054998;28;7179;-55
2023/06/05 10:27:57;;;;;;;;;;;;;;;29.80;32.29;94144.25;5028610;28;7104;-55
2023/06/05 10:34:36;;;;;;;;;;;;;;;29.84;30.99;94152.22;4983807;28;8735;-55
2023/06/05 10:37:25;;;;;;;;;;;;;;;29.85;31.59;94150.19;4970336;28;8441;-55
2023/06/05 10:40:16;;;;;;;;;;;;;;;29.86;31.44;94146.91;4966206;28;7025;-55
2023/06/05 10:42:42;;;;;;;;;;;;;;;29.88;32.04;94151.88;4964019;28;9237;-55
2023/06/05 10:49:23;;;;;;;;;;;;;;;29.88;31.94;94149.13;4979717;28;7306;-55
2023/06/05 10:51:50;;;;;;;;;;;;;;;29.87;31.25;94142.81;4968923;28;7576;-55
2023/06/05 10:54:26;;;;;;;;;;;;;;;29.88;32.11;94146.34;4986251;28;6985;-55
2023/06/05 10:57:05;;;;;;;;;;;;;;;29.90;32.22;94141.75;4983583;28;9138;-55
2023/06/05 11:00:06;;;;;;;;;;;;;;;29.89;32.11;94145.78;4966116;28;8756;-55
2023/06/05 11:02:53;;;;;;;;;;;;;;;29.89;32.14;94145.78;4984966;28;8937;-55
2023/06/05 11:05:27;;;;;;;;;;;;;;;29.88;32.35;94149.13;4983924;28;8986;-55
2023/06/05 11:08:22;;;;;;;;;;;;;;;29.89;32.29;94148.56;4983627;28;8006;-56
2023/06/05 11:11:05;;;;;;;;;;;;;;;29.87;32.33;94142.81;5009056;28;7231;-55
2023/06/05 11:13:58;;;;;;;;;;;;;;;29.90;32.23;94135.44;5031358;28;7285;-55
2023/06/05 11:16:52;;;;;;;;;;;;;;;29.92;31.33;94138.41;5059694;28;9301;-55
2023/06/05 11:19:24;;;;;;;;;;;;;;;29.90;31.25;94141.75;5060474;28;7110;-55
2023/06/05 11:22:14;;;;;;;;;;;;;;;29.92;32.00;94132.88;5036461;28;9065;-55
2023/06/05 11:24:48;;;;;;;;;;;;;;;29.92;31.48;94139.16;5032139;28;9063;-55
2023/06/05 11:27:47;;;;;;;;;;;;;;;29.90;31.28;94144.50;5056710;28;9316;-55
2023/06/05 11:30:14;;;;;;;;;;;;;;;29.96;31.79;94127.72;5025201;28;8435;-55
2023/06/05 11:32:40;;;;;;;;;;;;;;;29.96;31.23;94134.00;5021160;28;7131;-55
2023/06/05 11:35:10;;;;;;;;;;;;;;;29.96;31.34;94130.47;5031396;28;6968;-55
2023/06/05 11:37:39;;;;;;;;;;;;;;;29.96;31.18;94133.25;5043477;28;7755;-55
2023/06/05 11:40:13;;;;;;;;;;;;;;;29.95;31.65;94121.41;5019770;28;9109;-56
2023/06/05 11:42:46;;;;;;;;;;;;;;;29.98;31.24;94125.88;5023679;28;7065;-55
2023/06/05 11:45:57;;;;;;;;;;;;;;;30.03;31.65;94116.66;5026580;28;8490;-55
2023/06/05 11:48:24;;;;;;;;;;;;;;;30.00;30.91;94112.22;5013316;28;9399;-55
2023/06/05 11:50:52;;;;;;;;;;;;;;;30.02;31.04;94114.41;5026426;28;7375;-55
2023/06/05 11:53:18;;;;;;;;;;;;;;;29.95;31.14;94129.72;5022475;28;7230;-55
2023/06/05 11:58:29;;;;;;;;;;;;;;;29.88;31.50;94119.38;5020449;28;7543;-55
2023/06/05 12:01:31;;;;;;;;;;;;;;;29.88;31.14;94116.59;5000841;28;7044;-56
2023/06/05 12:04:14;;;;;;;;;;;;;;;29.87;32.05;94115.09;5012785;28;7027;-55
2023/06/05 12:06:51;;;;;;;;;;;;;;;29.88;30.99;94122.13;5031317;28;7360;-55
2023/06/05 12:09:26;;;;;;;;;;;;;;;29.86;31.53;94105.31;5015236;28;7612;-55
2023/06/05 12:12:10;;;;;;;;;;;;;;;29.89;31.21;94112.50;5029270;28;7467;-55
2023/06/05 12:14:49;;;;;;;;;;;;;;;29.87;30.84;94109.53;5010929;28;7109;-55
2023/06/05 12:17:16;;;;;;;;;;;;;;;29.89;31.56;94109.75;5010427;28;9044;-56
2023/06/05 12:20:30;;;;;;;;;;;;;;;29.91;30.60;94106.41;5026155;28;7703;-55
2023/06/05 12:23:18;;;;;;;;;;;;;;;29.93;31.44;94101.09;4971493;28;8798;-55
2023/06/05 12:26:19;;;;;;;;;;;;;;;29.90;30.81;94100.16;4988643;28;7346;-56
2023/06/05 12:28:46;;;;;;;;;;;;;;;29.89;31.48;94098.66;4990582;28;7058;-56
2023/06/05 12:31:39;;;;;;;;;;;;;;;29.92;30.81;94094.78;4972174;28;9151;-55
2023/06/05 12:34:07;;;;;;;;;;;;;;;29.93;31.77;94099.03;4989538;28;9116;-55
2023/06/05 12:36:42;;;;;;;;;;;;;;;29.93;31.26;94093.50;4994714;28;8993;-55
2023/06/05 12:39:13;;;;;;;;;;;;;;;29.95;30.65;94092.97;4986547;28;8985;-56
2023/06/05 12:41:40;;;;;;;;;;;;;;;29.95;30.91;94084.66;5000669;28;7315;-55
2023/06/05 12:44:10;;;;;;;;;;;;;;;29.96;30.90;94084.09;4972232;28;8962;-55
2023/06/05 12:46:38;;;;;;;;;;;;;;;29.99;31.08;94083.00;4986832;28;7281;-55
2023/06/05 12:49:16;;;;;;;;;;;;;;;30.02;30.81;94081.88;4970289;28;7265;-55
2023/06/05 12:51:43;;;;;;;;;;;;;;;30.07;30.89;94074.69;4990638;28;7369;-55
2023/06/05 12:54:19;;;;;;;;;;;;;;;30.05;30.21;94075.25;4992224;28;7160;-56
2023/06/05 12:56:47;;;;;;;;;;;;;;;30.07;30.48;94077.47;4990465;28;7121;-55
2023/06/05 12:59:17;;;;;;;;;;;;;;;30.09;30.59;94086.75;4989048;28;9111;-56
2023/06/05 13:01:43;;;;;;;;;;;;;;;30.10;30.70;94079.16;5055047;28;7250;-56
2023/06/05 13:04:11;;;;;;;;;;;;;;;30.11;31.12;94073.06;5037867;28;9737;-55
2023/06/05 13:06:38;;;;;;;;;;;;;;;30.10;30.66;94071.56;5053632;28;9687;-55
2023/06/05 13:09:06;;;;;;;;;;;;;;;30.14;31.61;94076.78;5053740;28;7492;-55
2023/06/05 13:11:35;;;;;;;;;;;;;;;30.14;30.69;94063.66;5038234;28;7502;-55
2023/06/05 13:14:08;;;;;;;;;;;;;;;30.19;30.99;94067.56;5039411;28;9042;-56
2023/06/05 13:16:40;;;;;;;;;;;;;;;30.20;30.81;94058.69;5022932;28;7265;-55
2023/06/05 13:19:14;;;;;;;;;;;;;;;30.19;30.25;94057.19;5031360;28;7354;-56
2023/06/05 13:21:48;;;;;;;;;;;;;;;30.20;30.85;94053.13;5048431;28;9102;-55
2023/06/05 13:24:24;;;;;;;;;;;;;;;30.23;30.05;94062.38;5024098;28;7325;-55
2023/06/05 13:27:01;;;;;;;;;;;;;;;30.24;30.10;94063.84;5058593;28;9006;-55
2023/06/05 13:29:33;;;;;;;;;;;;;;;30.26;31.14;94056.47;5027856;28;7235;-55
2023/06/05 13:32:09;;;;;;;;;;;;;;;30.27;31.02;94063.50;5041116;28;7097;-56
2023/06/05 13:34:35;;;;;;;;;;;;;;;30.26;30.82;94062.03;5033393;28;7265;-56
2023/06/05 13:37:26;;;;;;;;;;;;;;;30.29;30.30;94057.41;5032747;28;9165;-56
2023/06/05 13:39:58;;;;;;;;;;;;;;;30.29;31.24;94052.59;5047079;28;7091;-55
2023/06/05 13:42:30;;;;;;;;;;;;;;;30.31;30.87;94049.31;5033805;28;8033;-55
2023/06/05 13:44:58;;;;;;;;;;;;;;;30.30;31.45;94045.75;5061110;28;7210;-55
2023/06/05 13:48:11;;;;;;;;;;;;;;;30.33;31.23;94047.47;5040251;28;9860;-55
2023/06/05 13:50:53;;;;;;;;;;;;;;;30.35;31.87;94047.66;4965285;28;9137;-55
2023/06/05 13:53:34;;;;;;;;;;;;;;;30.35;31.02;94035.81;4968959;28;7443;-56
2023/06/05 13:56:14;;;;;;;;;;;;;;;30.40;30.84;94032.88;4969768;28;7025;-55
2023/06/05 13:58:40;;;;;;;;;;;;;;;30.44;30.88;94035.28;4971377;28;8927;-56